Big Trout Lake, Canada
Current Conditions -  °F | °C
As of 6:30 AM on Saturday 25 Oct 2014 (Local Time) from CYTL Reporting Station
Light Rain Light Rain  
Wind Chill: 34°   Ceiling: 1000
Heat Index: 43°   Visibility: 4mi
Dew Point: 41°   Wind: 21mph
Humidity: 93%   Direction: 310°NW
Pressure: 29.29"   Gusts: 33mph
Location:  53.77°N, 90.02°W
Report Text: CYTL 251030Z AUTO 31018G29KT 4SM -RA BR OVC010 06/05 A2929 RMK PCPN 0.8MM PAST HR SLP925
Loading
Personal Weather Stations






























Interactive Weather Map
Tropical Storm Tracking
New forecast layout! Learn more

10-Day Weather Forecast

Advertisements
Track Severe Weather on mobile